sensor_id;sensor_type;location;lat;lon;timestamp;temperature;humidity
52058;DHT22;38063;53.210;6.504;2022-11-24T00:00:33;6.60;99.90
52058;DHT22;38063;53.210;6.504;2022-11-24T00:02:58;6.60;99.90
52058;DHT22;38063;53.210;6.504;2022-11-24T00:05:25;6.60;99.90
52058;DHT22;38063;53.210;6.504;2022-11-24T00:07:51;6.60;99.90
52058;DHT22;38063;53.210;6.504;2022-11-24T00:10:16;6.60;99.90
52058;DHT22;38063;53.210;6.504;2022-11-24T00:12:42;6.60;99.90
52058;DHT22;38063;53.210;6.504;2022-11-24T00:15:08;6.60;99.90
52058;DHT22;38063;53.210;6.504;2022-11-24T00:17:33;6.60;99.90
52058;DHT22;38063;53.210;6.504;2022-11-24T00:19:59;6.60;99.90
52058;DHT22;38063;53.210;6.504;2022-11-24T00:22:25;6.60;99.90
52058;DHT22;38063;53.210;6.504;2022-11-24T00:24:50;6.60;99.90
52058;DHT22;38063;53.210;6.504;2022-11-24T00:27:16;6.50;99.90
52058;DHT22;38063;53.210;6.504;2022-11-24T00:29:42;6.50;99.90
52058;DHT22;38063;53.210;6.504;2022-11-24T00:32:07;6.40;99.90
52058;DHT22;38063;53.210;6.504;2022-11-24T00:34:33;6.40;99.90
52058;DHT22;38063;53.210;6.504;2022-11-24T00:36:58;6.40;99.90
52058;DHT22;38063;53.210;6.504;2022-11-24T00:39:25;6.30;99.90
52058;DHT22;38063;53.210;6.504;2022-11-24T00:41:50;6.30;99.90
52058;DHT22;38063;53.210;6.504;2022-11-24T00:44:16;6.30;99.90
52058;DHT22;38063;53.210;6.504;2022-11-24T00:46:42;6.20;99.90
52058;DHT22;38063;53.210;6.504;2022-11-24T00:49:07;6.20;99.90
52058;DHT22;38063;53.210;6.504;2022-11-24T00:51:33;6.20;99.90
52058;DHT22;38063;53.210;6.504;2022-11-24T00:53:59;6.30;99.90
52058;DHT22;38063;53.210;6.504;2022-11-24T00:56:27;6.20;99.90
52058;DHT22;38063;53.210;6.504;2022-11-24T00:58:53;6.20;99.90
52058;DHT22;38063;53.210;6.504;2022-11-24T01:01:21;6.20;99.90
52058;DHT22;38063;53.210;6.504;2022-11-24T01:03:47;6.20;99.90
52058;DHT22;38063;53.210;6.504;2022-11-24T01:06:18;6.20;99.90
52058;DHT22;38063;53.210;6.504;2022-11-24T01:08:44;6.30;99.90
52058;DHT22;38063;53.210;6.504;2022-11-24T01:13:36;6.30;99.90
52058;DHT22;38063;53.210;6.504;2022-11-24T01:16:02;6.30;99.90
52058;DHT22;38063;53.210;6.504;2022-11-24T01:18:27;6.20;99.90
52058;DHT22;38063;53.210;6.504;2022-11-24T01:20:53;6.20;99.90
52058;DHT22;38063;53.210;6.504;2022-11-24T01:23:18;6.20;99.90
52058;DHT22;38063;53.210;6.504;2022-11-24T01:25:44;6.20;99.90
52058;DHT22;38063;53.210;6.504;2022-11-24T01:28:10;6.20;99.90
52058;DHT22;38063;53.210;6.504;2022-11-24T01:30:35;6.20;99.90
52058;DHT22;38063;53.210;6.504;2022-11-24T01:33:01;6.20;99.90
52058;DHT22;38063;53.210;6.504;2022-11-24T01:35:26;6.20;99.90
52058;DHT22;38063;53.210;6.504;2022-11-24T01:37:52;6.20;99.90
52058;DHT22;38063;53.210;6.504;2022-11-24T01:40:18;6.10;99.90
52058;DHT22;38063;53.210;6.504;2022-11-24T01:42:49;6.10;99.90
52058;DHT22;38063;53.210;6.504;2022-11-24T01:45:34;6.10;99.90
52058;DHT22;38063;53.210;6.504;2022-11-24T01:48:03;6.10;99.90
52058;DHT22;38063;53.210;6.504;2022-11-24T01:50:30;6.10;99.90
52058;DHT22;38063;53.210;6.504;2022-11-24T01:52:56;6.10;99.90
52058;DHT22;38063;53.210;6.504;2022-11-24T01:55:28;6.10;99.90
52058;DHT22;38063;53.210;6.504;2022-11-24T01:58:13;6.10;99.90
52058;DHT22;38063;53.210;6.504;2022-11-24T02:00:43;6.20;99.90
52058;DHT22;38063;53.210;6.504;2022-11-24T02:03:11;6.20;99.90
52058;DHT22;38063;53.210;6.504;2022-11-24T02:08:20;6.70;99.90
52058;DHT22;38063;53.210;6.504;2022-11-24T02:10:47;6.30;99.90
52058;DHT22;38063;53.210;6.504;2022-11-24T02:13:13;6.30;99.90
52058;DHT22;38063;53.210;6.504;2022-11-24T02:15:40;6.30;99.90
52058;DHT22;38063;53.210;6.504;2022-11-24T02:18:05;6.30;99.90
52058;DHT22;38063;53.210;6.504;2022-11-24T02:20:31;6.30;99.90
52058;DHT22;38063;53.210;6.504;2022-11-24T02:23:14;6.30;99.90
52058;DHT22;38063;53.210;6.504;2022-11-24T02:25:49;6.30;99.90
52058;DHT22;38063;53.210;6.504;2022-11-24T02:28:20;6.40;99.90
52058;DHT22;38063;53.210;6.504;2022-11-24T02:30:47;6.40;99.90
52058;DHT22;38063;53.210;6.504;2022-11-24T02:33:13;6.40;99.90
52058;DHT22;38063;53.210;6.504;2022-11-24T02:35:39;6.40;99.90
52058;DHT22;38063;53.210;6.504;2022-11-24T02:38:05;6.30;99.90
52058;DHT22;38063;53.210;6.504;2022-11-24T02:40:31;6.30;99.90
52058;DHT22;38063;53.210;6.504;2022-11-24T02:43:02;6.30;99.90
52058;DHT22;38063;53.210;6.504;2022-11-24T02:45:29;6.20;99.90
52058;DHT22;38063;53.210;6.504;2022-11-24T02:47:56;6.20;99.90
52058;DHT22;38063;53.210;6.504;2022-11-24T02:50:22;6.20;99.90
52058;DHT22;38063;53.210;6.504;2022-11-24T02:52:47;6.10;99.90
52058;DHT22;38063;53.210;6.504;2022-11-24T02:55:13;6.10;99.90
52058;DHT22;38063;53.210;6.504;2022-11-24T02:57:39;6.10;99.90
52058;DHT22;38063;53.210;6.504;2022-11-24T03:00:05;6.10;99.90
52058;DHT22;38063;53.210;6.504;2022-11-24T03:02:31;6.10;99.90
52058;DHT22;38063;53.210;6.504;2022-11-24T03:04:56;6.00;99.90
52058;DHT22;38063;53.210;6.504;2022-11-24T03:07:22;6.00;99.90
52058;DHT22;38063;53.210;6.504;2022-11-24T03:09:47;6.00;99.90
52058;DHT22;38063;53.210;6.504;2022-11-24T03:12:13;6.00;99.90
52058;DHT22;38063;53.210;6.504;2022-11-24T03:14:39;6.00;99.90
52058;DHT22;38063;53.210;6.504;2022-11-24T03:17:04;5.90;99.90
52058;DHT22;38063;53.210;6.504;2022-11-24T03:19:31;6.20;99.90
52058;DHT22;38063;53.210;6.504;2022-11-24T03:21:57;5.90;99.90
52058;DHT22;38063;53.210;6.504;2022-11-24T03:24:23;6.00;99.90
52058;DHT22;38063;53.210;6.504;2022-11-24T03:26:48;6.00;99.90
52058;DHT22;38063;53.210;6.504;2022-11-24T03:29:14;6.00;99.90
52058;DHT22;38063;53.210;6.504;2022-11-24T03:31:40;6.00;99.90
52058;DHT22;38063;53.210;6.504;2022-11-24T03:34:05;6.00;99.90
52058;DHT22;38063;53.210;6.504;2022-11-24T03:36:31;6.00;99.90
52058;DHT22;38063;53.210;6.504;2022-11-24T03:38:56;6.00;99.90
52058;DHT22;38063;53.210;6.504;2022-11-24T03:41:22;6.00;99.90
52058;DHT22;38063;53.210;6.504;2022-11-24T03:43:47;6.00;99.90
52058;DHT22;38063;53.210;6.504;2022-11-24T03:46:13;6.00;99.90
52058;DHT22;38063;53.210;6.504;2022-11-24T03:48:39;6.00;99.90
52058;DHT22;38063;53.210;6.504;2022-11-24T03:51:05;6.00;99.90
52058;DHT22;38063;53.210;6.504;2022-11-24T03:53:31;6.00;99.90
52058;DHT22;38063;53.210;6.504;2022-11-24T03:55:58;6.00;99.90
52058;DHT22;38063;53.210;6.504;2022-11-24T03:58:24;6.00;99.90
52058;DHT22;38063;53.210;6.504;2022-11-24T04:00:51;6.00;99.90
52058;DHT22;38063;53.210;6.504;2022-11-24T04:03:17;6.00;99.90
52058;DHT22;38063;53.210;6.504;2022-11-24T04:05:44;5.90;99.90
52058;DHT22;38063;53.210;6.504;2022-11-24T04:08:09;5.90;99.90
52058;DHT22;38063;53.210;6.504;2022-11-24T04:10:36;5.90;99.90
52058;DHT22;38063;53.210;6.504;2022-11-24T04:13:03;5.90;99.90
52058;DHT22;38063;53.210;6.504;2022-11-24T04:15:29;6.00;99.90
52058;DHT22;38063;53.210;6.504;2022-11-24T04:17:56;5.80;99.90
52058;DHT22;38063;53.210;6.504;2022-11-24T04:20:22;5.80;99.90
52058;DHT22;38063;53.210;6.504;2022-11-24T04:22:51;5.80;99.90
52058;DHT22;38063;53.210;6.504;2022-11-24T04:25:17;5.80;99.90
52058;DHT22;38063;53.210;6.504;2022-11-24T04:27:42;5.80;99.90
52058;DHT22;38063;53.210;6.504;2022-11-24T04:30:09;5.80;99.90
52058;DHT22;38063;53.210;6.504;2022-11-24T04:32:35;5.90;99.90
52058;DHT22;38063;53.210;6.504;2022-11-24T04:35:03;6.00;99.90
52058;DHT22;38063;53.210;6.504;2022-11-24T04:37:28;5.90;99.90
52058;DHT22;38063;53.210;6.504;2022-11-24T04:39:54;6.00;99.90
52058;DHT22;38063;53.210;6.504;2022-11-24T04:42:20;6.10;99.90
52058;DHT22;38063;53.210;6.504;2022-11-24T04:44:45;6.00;99.90
52058;DHT22;38063;53.210;6.504;2022-11-24T04:47:17;6.10;99.90
52058;DHT22;38063;53.210;6.504;2022-11-24T04:49:45;6.10;99.90
52058;DHT22;38063;53.210;6.504;2022-11-24T04:52:11;6.10;99.90
52058;DHT22;38063;53.210;6.504;2022-11-24T04:54:37;6.10;99.90
52058;DHT22;38063;53.210;6.504;2022-11-24T04:57:02;6.40;99.90
52058;DHT22;38063;53.210;6.504;2022-11-24T04:59:28;6.10;99.90
52058;DHT22;38063;53.210;6.504;2022-11-24T05:01:54;6.10;99.90
52058;DHT22;38063;53.210;6.504;2022-11-24T05:04:19;6.30;99.90
52058;DHT22;38063;53.210;6.504;2022-11-24T05:06:46;6.10;99.90
52058;DHT22;38063;53.210;6.504;2022-11-24T05:09:14;6.10;99.90
52058;DHT22;38063;53.210;6.504;2022-11-24T05:11:40;6.10;99.90
52058;DHT22;38063;53.210;6.504;2022-11-24T05:14:06;6.00;99.90
52058;DHT22;38063;53.210;6.504;2022-11-24T05:16:31;6.00;99.90
52058;DHT22;38063;53.210;6.504;2022-11-24T05:18:57;6.00;99.90
52058;DHT22;38063;53.210;6.504;2022-11-24T05:21:23;6.00;99.90
52058;DHT22;38063;53.210;6.504;2022-11-24T05:23:48;5.90;99.90
52058;DHT22;38063;53.210;6.504;2022-11-24T05:26:14;5.90;99.90
52058;DHT22;38063;53.210;6.504;2022-11-24T05:28:39;5.90;99.90
52058;DHT22;38063;53.210;6.504;2022-11-24T05:31:05;5.80;99.90
52058;DHT22;38063;53.210;6.504;2022-11-24T05:33:31;5.80;99.90
52058;DHT22;38063;53.210;6.504;2022-11-24T05:36:05;5.80;99.90
52058;DHT22;38063;53.210;6.504;2022-11-24T05:38:32;5.80;99.90
52058;DHT22;38063;53.210;6.504;2022-11-24T05:41:04;5.70;99.90
52058;DHT22;38063;53.210;6.504;2022-11-24T05:43:30;5.70;99.90
52058;DHT22;38063;53.210;6.504;2022-11-24T05:45:59;5.70;99.90
52058;DHT22;38063;53.210;6.504;2022-11-24T05:48:25;5.70;99.90
52058;DHT22;38063;53.210;6.504;2022-11-24T05:50:55;5.70;99.90
52058;DHT22;38063;53.210;6.504;2022-11-24T05:53:22;5.70;99.90
52058;DHT22;38063;53.210;6.504;2022-11-24T05:55:48;5.70;99.90
52058;DHT22;38063;53.210;6.504;2022-11-24T05:58:13;5.70;99.90
52058;DHT22;38063;53.210;6.504;2022-11-24T06:00:39;5.60;99.90
52058;DHT22;38063;53.210;6.504;2022-11-24T06:03:05;5.60;99.90
52058;DHT22;38063;53.210;6.504;2022-11-24T06:05:31;5.60;99.90
52058;DHT22;38063;53.210;6.504;2022-11-24T06:07:58;5.60;99.90
52058;DHT22;38063;53.210;6.504;2022-11-24T06:10:25;5.60;99.90
52058;DHT22;38063;53.210;6.504;2022-11-24T06:12:51;5.50;99.90
52058;DHT22;38063;53.210;6.504;2022-11-24T06:15:16;5.50;99.90
52058;DHT22;38063;53.210;6.504;2022-11-24T06:17:42;5.50;99.90
52058;DHT22;38063;53.210;6.504;2022-11-24T06:20:09;5.50;99.90
52058;DHT22;38063;53.210;6.504;2022-11-24T06:22:35;5.50;99.90
52058;DHT22;38063;53.210;6.504;2022-11-24T06:25:01;5.50;99.90
52058;DHT22;38063;53.210;6.504;2022-11-24T06:27:27;5.50;99.90
52058;DHT22;38063;53.210;6.504;2022-11-24T06:29:52;5.50;99.90
52058;DHT22;38063;53.210;6.504;2022-11-24T06:32:18;5.50;99.90
52058;DHT22;38063;53.210;6.504;2022-11-24T06:34:44;5.50;99.90
52058;DHT22;38063;53.210;6.504;2022-11-24T06:37:10;5.50;99.90
52058;DHT22;38063;53.210;6.504;2022-11-24T06:39:35;5.50;99.90
52058;DHT22;38063;53.210;6.504;2022-11-24T06:42:02;5.50;99.90
52058;DHT22;38063;53.210;6.504;2022-11-24T06:44:28;5.40;99.90
52058;DHT22;38063;53.210;6.504;2022-11-24T06:46:53;5.40;99.90
52058;DHT22;38063;53.210;6.504;2022-11-24T06:49:19;5.40;99.90
52058;DHT22;38063;53.210;6.504;2022-11-24T06:51:45;5.40;99.90
52058;DHT22;38063;53.210;6.504;2022-11-24T06:54:14;5.30;99.90
52058;DHT22;38063;53.210;6.504;2022-11-24T06:56:40;5.30;99.90
52058;DHT22;38063;53.210;6.504;2022-11-24T06:59:05;5.30;99.90
52058;DHT22;38063;53.210;6.504;2022-11-24T07:01:31;5.30;99.90
52058;DHT22;38063;53.210;6.504;2022-11-24T07:03:57;5.30;99.90
52058;DHT22;38063;53.210;6.504;2022-11-24T07:06:24;5.30;99.90
52058;DHT22;38063;53.210;6.504;2022-11-24T07:08:51;5.20;99.90
52058;DHT22;38063;53.210;6.504;2022-11-24T07:11:22;5.20;99.90
52058;DHT22;38063;53.210;6.504;2022-11-24T07:13:48;5.30;99.90
52058;DHT22;38063;53.210;6.504;2022-11-24T07:16:18;5.20;99.90
52058;DHT22;38063;53.210;6.504;2022-11-24T07:18:45;5.20;99.90
52058;DHT22;38063;53.210;6.504;2022-11-24T07:21:11;5.20;99.90
52058;DHT22;38063;53.210;6.504;2022-11-24T07:23:37;5.20;99.90
52058;DHT22;38063;53.210;6.504;2022-11-24T07:26:03;5.10;99.90
52058;DHT22;38063;53.210;6.504;2022-11-24T07:28:29;5.10;99.90
52058;DHT22;38063;53.210;6.504;2022-11-24T07:30:55;5.10;99.90
52058;DHT22;38063;53.210;6.504;2022-11-24T07:33:21;5.10;99.90
52058;DHT22;38063;53.210;6.504;2022-11-24T07:35:50;5.00;99.90
52058;DHT22;38063;53.210;6.504;2022-11-24T07:38:16;5.00;99.90
52058;DHT22;38063;53.210;6.504;2022-11-24T07:40:42;5.00;99.90
52058;DHT22;38063;53.210;6.504;2022-11-24T07:43:07;5.00;99.90
52058;DHT22;38063;53.210;6.504;2022-11-24T07:45:33;5.00;99.90
52058;DHT22;38063;53.210;6.504;2022-11-24T07:47:58;4.90;99.90
52058;DHT22;38063;53.210;6.504;2022-11-24T07:50:24;4.90;99.90
52058;DHT22;38063;53.210;6.504;2022-11-24T07:52:49;4.90;99.90
52058;DHT22;38063;53.210;6.504;2022-11-24T07:55:15;4.90;99.90
52058;DHT22;38063;53.210;6.504;2022-11-24T07:57:41;4.90;99.90
52058;DHT22;38063;53.210;6.504;2022-11-24T08:00:10;4.90;99.90
52058;DHT22;38063;53.210;6.504;2022-11-24T08:02:36;4.90;99.90
52058;DHT22;38063;53.210;6.504;2022-11-24T08:05:02;4.90;99.90
52058;DHT22;38063;53.210;6.504;2022-11-24T08:07:27;4.90;99.90
52058;DHT22;38063;53.210;6.504;2022-11-24T08:09:53;4.90;99.90
52058;DHT22;38063;53.210;6.504;2022-11-24T08:12:19;4.90;99.90
52058;DHT22;38063;53.210;6.504;2022-11-24T08:14:48;4.90;99.90
52058;DHT22;38063;53.210;6.504;2022-11-24T08:17:15;4.90;99.90
52058;DHT22;38063;53.210;6.504;2022-11-24T08:19:41;4.90;99.90
52058;DHT22;38063;53.210;6.504;2022-11-24T08:22:06;5.00;99.90
52058;DHT22;38063;53.210;6.504;2022-11-24T08:24:32;5.00;99.90
52058;DHT22;38063;53.210;6.504;2022-11-24T08:26:57;5.00;99.90
52058;DHT22;38063;53.210;6.504;2022-11-24T08:29:29;5.10;99.90
52058;DHT22;38063;53.210;6.504;2022-11-24T08:31:56;5.10;99.90
52058;DHT22;38063;53.210;6.504;2022-11-24T08:34:23;5.20;99.90
52058;DHT22;38063;53.210;6.504;2022-11-24T08:36:49;5.20;99.90
52058;DHT22;38063;53.210;6.504;2022-11-24T08:39:15;5.20;99.90
52058;DHT22;38063;53.210;6.504;2022-11-24T08:41:41;5.30;99.90
52058;DHT22;38063;53.210;6.504;2022-11-24T08:44:06;5.30;99.90
52058;DHT22;38063;53.210;6.504;2022-11-24T08:46:34;5.40;99.90
52058;DHT22;38063;53.210;6.504;2022-11-24T08:49:00;5.60;99.90
52058;DHT22;38063;53.210;6.504;2022-11-24T08:51:26;5.80;99.90
52058;DHT22;38063;53.210;6.504;2022-11-24T08:53:56;5.90;99.90
52058;DHT22;38063;53.210;6.504;2022-11-24T08:56:23;6.10;99.90
52058;DHT22;38063;53.210;6.504;2022-11-24T08:58:48;6.20;99.90
52058;DHT22;38063;53.210;6.504;2022-11-24T09:01:15;6.30;99.90
52058;DHT22;38063;53.210;6.504;2022-11-24T09:03:42;6.40;99.90
52058;DHT22;38063;53.210;6.504;2022-11-24T09:06:09;6.50;99.90
52058;DHT22;38063;53.210;6.504;2022-11-24T09:08:35;6.60;99.90
52058;DHT22;38063;53.210;6.504;2022-11-24T09:11:07;6.60;99.90
52058;DHT22;38063;53.210;6.504;2022-11-24T09:13:34;6.60;99.90
52058;DHT22;38063;53.210;6.504;2022-11-24T09:16:04;6.60;99.90
52058;DHT22;38063;53.210;6.504;2022-11-24T09:18:30;6.70;99.90
52058;DHT22;38063;53.210;6.504;2022-11-24T09:21:17;6.70;99.90
52058;DHT22;38063;53.210;6.504;2022-11-24T09:23:44;6.70;99.90
52058;DHT22;38063;53.210;6.504;2022-11-24T09:26:12;6.70;99.90
52058;DHT22;38063;53.210;6.504;2022-11-24T09:28:38;6.70;99.90
52058;DHT22;38063;53.210;6.504;2022-11-24T09:31:07;6.70;99.90
52058;DHT22;38063;53.210;6.504;2022-11-24T09:33:33;6.70;99.90
52058;DHT22;38063;53.210;6.504;2022-11-24T09:35:59;6.80;99.90
52058;DHT22;38063;53.210;6.504;2022-11-24T09:38:25;6.80;99.90
52058;DHT22;38063;53.210;6.504;2022-11-24T09:40:54;6.80;99.90
52058;DHT22;38063;53.210;6.504;2022-11-24T09:48:38;7.00;99.90
52058;DHT22;38063;53.210;6.504;2022-11-24T09:51:09;7.10;99.90
52058;DHT22;38063;53.210;6.504;2022-11-24T09:53:40;7.10;99.90
52058;DHT22;38063;53.210;6.504;2022-11-24T09:58:53;7.20;99.90
52058;DHT22;38063;53.210;6.504;2022-11-24T10:01:23;7.30;99.90
52058;DHT22;38063;53.210;6.504;2022-11-24T10:03:52;7.40;99.90
52058;DHT22;38063;53.210;6.504;2022-11-24T10:09:41;7.40;99.90
52058;DHT22;38063;53.210;6.504;2022-11-24T10:12:29;7.50;99.90
52058;DHT22;38063;53.210;6.504;2022-11-24T10:21:26;7.60;99.90
52058;DHT22;38063;53.210;6.504;2022-11-24T10:26:36;7.60;99.90
52058;DHT22;38063;53.210;6.504;2022-11-24T10:31:40;7.70;99.90
52058;DHT22;38063;53.210;6.504;2022-11-24T10:34:16;7.80;99.90
52058;DHT22;38063;53.210;6.504;2022-11-24T10:39:26;7.80;99.90
52058;DHT22;38063;53.210;6.504;2022-11-24T10:42:01;7.80;99.90
52058;DHT22;38063;53.210;6.504;2022-11-24T10:44:29;7.80;99.90
52058;DHT22;38063;53.210;6.504;2022-11-24T10:46:55;7.90;99.90
52058;DHT22;38063;53.210;6.504;2022-11-24T10:49:27;7.90;99.90
52058;DHT22;38063;53.210;6.504;2022-11-24T10:52:08;7.90;99.90
52058;DHT22;38063;53.210;6.504;2022-11-24T10:54:56;7.90;99.90
52058;DHT22;38063;53.210;6.504;2022-11-24T10:57:33;7.80;99.90
52058;DHT22;38063;53.210;6.504;2022-11-24T11:00:03;7.80;99.90
52058;DHT22;38063;53.210;6.504;2022-11-24T11:02:37;7.80;99.90
52058;DHT22;38063;53.210;6.504;2022-11-24T11:07:47;7.90;99.90
52058;DHT22;38063;53.210;6.504;2022-11-24T11:10:19;7.90;99.90
52058;DHT22;38063;53.210;6.504;2022-11-24T11:12:45;8.00;99.90
52058;DHT22;38063;53.210;6.504;2022-11-24T11:15:29;8.00;99.90
52058;DHT22;38063;53.210;6.504;2022-11-24T11:17:59;8.00;99.90
52058;DHT22;38063;53.210;6.504;2022-11-24T11:20:30;8.10;99.90
52058;DHT22;38063;53.210;6.504;2022-11-24T11:22:59;8.10;99.90
52058;DHT22;38063;53.210;6.504;2022-11-24T11:31:01;8.10;99.90
52058;DHT22;38063;53.210;6.504;2022-11-24T11:33:29;8.20;99.90
52058;DHT22;38063;53.210;6.504;2022-11-24T11:35:56;8.30;99.90
52058;DHT22;38063;53.210;6.504;2022-11-24T11:38:24;8.30;99.90
52058;DHT22;38063;53.210;6.504;2022-11-24T11:40:51;8.30;99.90
52058;DHT22;38063;53.210;6.504;2022-11-24T11:43:27;8.40;99.90
52058;DHT22;38063;53.210;6.504;2022-11-24T11:46:12;8.40;99.90
52058;DHT22;38063;53.210;6.504;2022-11-24T11:48:41;8.50;99.90
52058;DHT22;38063;53.210;6.504;2022-11-24T11:53:51;8.50;99.90
52058;DHT22;38063;53.210;6.504;2022-11-24T11:56:42;8.60;99.90
52058;DHT22;38063;53.210;6.504;2022-11-24T12:04:46;8.70;99.90
52058;DHT22;38063;53.210;6.504;2022-11-24T12:15:45;8.80;99.90
52058;DHT22;38063;53.210;6.504;2022-11-24T12:26:40;9.10;99.90
52058;DHT22;38063;53.210;6.504;2022-11-24T12:32:24;9.10;99.90
52058;DHT22;38063;53.210;6.504;2022-11-24T12:45:17;9.10;99.90
52058;DHT22;38063;53.210;6.504;2022-11-24T12:48:04;9.10;99.90
52058;DHT22;38063;53.210;6.504;2022-11-24T12:50:36;9.10;99.90
52058;DHT22;38063;53.210;6.504;2022-11-24T12:53:34;9.10;99.90
52058;DHT22;38063;53.210;6.504;2022-11-24T12:56:07;9.10;99.90
52058;DHT22;38063;53.210;6.504;2022-11-24T13:08:43;9.30;99.90
52058;DHT22;38063;53.210;6.504;2022-11-24T13:14:17;9.30;99.90
52058;DHT22;38063;53.210;6.504;2022-11-24T13:16:54;9.30;99.90
52058;DHT22;38063;53.210;6.504;2022-11-24T13:19:32;9.40;99.90
52058;DHT22;38063;53.210;6.504;2022-11-24T13:24:33;9.40;99.90
52058;DHT22;38063;53.210;6.504;2022-11-24T13:29:40;9.40;99.90
52058;DHT22;38063;53.210;6.504;2022-11-24T13:34:53;9.40;99.90
52058;DHT22;38063;53.210;6.504;2022-11-24T13:53:37;9.30;99.90
52058;DHT22;38063;53.210;6.504;2022-11-24T13:56:19;9.30;99.90
52058;DHT22;38063;53.210;6.504;2022-11-24T13:58:48;9.30;99.90
52058;DHT22;38063;53.210;6.504;2022-11-24T14:01:24;9.30;99.90
52058;DHT22;38063;53.210;6.504;2022-11-24T14:04:11;9.30;99.90
52058;DHT22;38063;53.210;6.504;2022-11-24T14:09:25;9.30;99.90
52058;DHT22;38063;53.210;6.504;2022-11-24T14:11:54;9.20;99.90
52058;DHT22;38063;53.210;6.504;2022-11-24T14:14:22;9.20;99.90
52058;DHT22;38063;53.210;6.504;2022-11-24T14:16:48;9.20;99.90
52058;DHT22;38063;53.210;6.504;2022-11-24T14:19:29;9.10;99.90
52058;DHT22;38063;53.210;6.504;2022-11-24T14:21:55;9.10;99.90
52058;DHT22;38063;53.210;6.504;2022-11-24T14:24:31;9.10;99.90
52058;DHT22;38063;53.210;6.504;2022-11-24T14:26:57;9.00;99.90
52058;DHT22;38063;53.210;6.504;2022-11-24T14:29:23;9.00;99.90
52058;DHT22;38063;53.210;6.504;2022-11-24T14:31:58;8.90;99.90
52058;DHT22;38063;53.210;6.504;2022-11-24T14:34:27;8.90;99.90
52058;DHT22;38063;53.210;6.504;2022-11-24T14:36:54;8.90;99.90
52058;DHT22;38063;53.210;6.504;2022-11-24T14:39:22;8.90;99.90
52058;DHT22;38063;53.210;6.504;2022-11-24T14:42:20;9.10;99.90
52058;DHT22;38063;53.210;6.504;2022-11-24T14:44:52;8.80;99.90
52058;DHT22;38063;53.210;6.504;2022-11-24T14:47:32;8.80;99.90
52058;DHT22;38063;53.210;6.504;2022-11-24T14:50:14;8.70;99.90
52058;DHT22;38063;53.210;6.504;2022-11-24T14:52:56;8.70;99.90
52058;DHT22;38063;53.210;6.504;2022-11-24T14:55:28;8.60;99.90
52058;DHT22;38063;53.210;6.504;2022-11-24T14:57:55;8.60;99.90
52058;DHT22;38063;53.210;6.504;2022-11-24T15:03:16;8.50;99.90
52058;DHT22;38063;53.210;6.504;2022-11-24T15:05:53;8.50;99.90
52058;DHT22;38063;53.210;6.504;2022-11-24T15:08:20;8.40;99.90
52058;DHT22;38063;53.210;6.504;2022-11-24T15:10:47;8.30;99.90
52058;DHT22;38063;53.210;6.504;2022-11-24T15:13:19;8.30;99.90
52058;DHT22;38063;53.210;6.504;2022-11-24T15:15:49;8.20;99.90
52058;DHT22;38063;53.210;6.504;2022-11-24T15:18:40;8.20;99.90
52058;DHT22;38063;53.210;6.504;2022-11-24T15:21:07;8.20;99.90
52058;DHT22;38063;53.210;6.504;2022-11-24T15:23:33;8.20;99.90
52058;DHT22;38063;53.210;6.504;2022-11-24T15:28:31;8.00;99.90
52058;DHT22;38063;53.210;6.504;2022-11-24T15:31:02;8.00;99.90
52058;DHT22;38063;53.210;6.504;2022-11-24T15:33:29;7.90;99.90
52058;DHT22;38063;53.210;6.504;2022-11-24T15:35:55;7.90;99.90
52058;DHT22;38063;53.210;6.504;2022-11-24T15:38:21;7.80;99.90
52058;DHT22;38063;53.210;6.504;2022-11-24T15:40:49;7.80;99.90
52058;DHT22;38063;53.210;6.504;2022-11-24T15:45:47;7.70;99.90
52058;DHT22;38063;53.210;6.504;2022-11-24T15:48:13;7.60;99.90
52058;DHT22;38063;53.210;6.504;2022-11-24T15:50:38;7.50;99.90
52058;DHT22;38063;53.210;6.504;2022-11-24T15:53:04;7.50;99.90
52058;DHT22;38063;53.210;6.504;2022-11-24T15:55:31;7.50;99.90
52058;DHT22;38063;53.210;6.504;2022-11-24T15:57:56;7.40;99.90
52058;DHT22;38063;53.210;6.504;2022-11-24T16:00:22;7.40;99.90
52058;DHT22;38063;53.210;6.504;2022-11-24T16:02:49;7.40;99.90
52058;DHT22;38063;53.210;6.504;2022-11-24T16:05:16;7.30;99.90
52058;DHT22;38063;53.210;6.504;2022-11-24T16:07:42;7.30;99.90
52058;DHT22;38063;53.210;6.504;2022-11-24T16:10:23;7.50;99.90
52058;DHT22;38063;53.210;6.504;2022-11-24T16:12:49;7.20;99.90
52058;DHT22;38063;53.210;6.504;2022-11-24T16:15:14;7.20;99.90
52058;DHT22;38063;53.210;6.504;2022-11-24T16:17:40;7.10;99.90
52058;DHT22;38063;53.210;6.504;2022-11-24T16:20:06;7.10;99.90
52058;DHT22;38063;53.210;6.504;2022-11-24T16:22:32;7.10;99.90
52058;DHT22;38063;53.210;6.504;2022-11-24T16:24:57;7.00;99.90
52058;DHT22;38063;53.210;6.504;2022-11-24T16:27:23;7.10;99.90
52058;DHT22;38063;53.210;6.504;2022-11-24T16:29:49;6.90;99.90
52058;DHT22;38063;53.210;6.504;2022-11-24T16:32:14;6.80;99.90
52058;DHT22;38063;53.210;6.504;2022-11-24T16:34:40;6.80;99.90
52058;DHT22;38063;53.210;6.504;2022-11-24T16:37:05;6.70;99.90
52058;DHT22;38063;53.210;6.504;2022-11-24T16:39:31;6.70;99.90
52058;DHT22;38063;53.210;6.504;2022-11-24T16:41:57;6.70;99.90
52058;DHT22;38063;53.210;6.504;2022-11-24T16:44:22;6.70;99.90
52058;DHT22;38063;53.210;6.504;2022-11-24T16:46:48;6.70;99.90
52058;DHT22;38063;53.210;6.504;2022-11-24T16:49:14;6.70;99.90
52058;DHT22;38063;53.210;6.504;2022-11-24T16:51:39;6.70;99.90
52058;DHT22;38063;53.210;6.504;2022-11-24T16:54:07;6.70;99.90
52058;DHT22;38063;53.210;6.504;2022-11-24T16:56:33;6.70;99.90
52058;DHT22;38063;53.210;6.504;2022-11-24T16:58:59;6.60;99.90
52058;DHT22;38063;53.210;6.504;2022-11-24T17:01:25;6.60;99.90
52058;DHT22;38063;53.210;6.504;2022-11-24T17:03:51;6.60;99.90
52058;DHT22;38063;53.210;6.504;2022-11-24T17:06:17;6.50;99.90
52058;DHT22;38063;53.210;6.504;2022-11-24T17:08:44;6.50;99.90
52058;DHT22;38063;53.210;6.504;2022-11-24T17:11:15;6.50;99.90
52058;DHT22;38063;53.210;6.504;2022-11-24T17:13:42;6.50;99.90
52058;DHT22;38063;53.210;6.504;2022-11-24T17:16:10;6.50;99.90
52058;DHT22;38063;53.210;6.504;2022-11-24T17:18:36;6.50;99.90
52058;DHT22;38063;53.210;6.504;2022-11-24T17:21:03;6.50;99.90
52058;DHT22;38063;53.210;6.504;2022-11-24T17:23:29;6.50;99.90
52058;DHT22;38063;53.210;6.504;2022-11-24T17:26:03;6.50;99.90
52058;DHT22;38063;53.210;6.504;2022-11-24T17:28:29;6.60;99.90
52058;DHT22;38063;53.210;6.504;2022-11-24T17:30:55;6.40;99.90
52058;DHT22;38063;53.210;6.504;2022-11-24T17:33:21;6.40;99.90
52058;DHT22;38063;53.210;6.504;2022-11-24T17:35:46;6.40;99.90
52058;DHT22;38063;53.210;6.504;2022-11-24T17:38:12;6.30;99.90
52058;DHT22;38063;53.210;6.504;2022-11-24T17:40:38;6.30;99.90
52058;DHT22;38063;53.210;6.504;2022-11-24T17:43:03;6.30;99.90
52058;DHT22;38063;53.210;6.504;2022-11-24T17:45:29;6.30;99.90
52058;DHT22;38063;53.210;6.504;2022-11-24T17:47:57;6.30;99.90
52058;DHT22;38063;53.210;6.504;2022-11-24T17:50:23;6.70;99.90
52058;DHT22;38063;53.210;6.504;2022-11-24T17:52:48;6.20;99.90
52058;DHT22;38063;53.210;6.504;2022-11-24T17:55:14;6.20;99.90